sensor_id;sensor_type;location;lat;lon;timestamp;P1;durP1;ratioP1;P2;durP2;ratioP2
22634;SDS011;11484;50.858;4.384;2022-11-20T00:01:53;37.08;;;21.63;;
22634;SDS011;11484;50.858;4.384;2022-11-20T00:04:19;37.15;;;21.80;;
22634;SDS011;11484;50.858;4.384;2022-11-20T00:06:44;39.75;;;21.60;;
22634;SDS011;11484;50.858;4.384;2022-11-20T00:09:11;38.63;;;20.75;;
22634;SDS011;11484;50.858;4.384;2022-11-20T00:11:37;41.58;;;23.00;;
22634;SDS011;11484;50.858;4.384;2022-11-20T00:14:03;38.95;;;22.73;;
22634;SDS011;11484;50.858;4.384;2022-11-20T00:16:30;38.00;;;22.10;;
22634;SDS011;11484;50.858;4.384;2022-11-20T00:18:56;38.38;;;22.27;;
22634;SDS011;11484;50.858;4.384;2022-11-20T00:21:24;43.00;;;22.85;;
22634;SDS011;11484;50.858;4.384;2022-11-20T00:23:51;34.90;;;21.00;;
22634;SDS011;11484;50.858;4.384;2022-11-20T00:26:19;39.15;;;22.20;;
22634;SDS011;11484;50.858;4.384;2022-11-20T00:28:54;46.05;;;23.15;;
22634;SDS011;11484;50.858;4.384;2022-11-20T00:31:24;45.25;;;24.17;;
22634;SDS011;11484;50.858;4.384;2022-11-20T00:33:50;41.63;;;22.42;;
22634;SDS011;11484;50.858;4.384;2022-11-20T00:36:18;37.88;;;21.65;;
22634;SDS011;11484;50.858;4.384;2022-11-20T00:38:52;43.15;;;23.50;;
22634;SDS011;11484;50.858;4.384;2022-11-20T00:43:44;39.03;;;22.75;;
22634;SDS011;11484;50.858;4.384;2022-11-20T00:48:40;38.90;;;21.17;;
22634;SDS011;11484;50.858;4.384;2022-11-20T00:51:06;41.58;;;23.98;;
22634;SDS011;11484;50.858;4.384;2022-11-20T00:53:32;43.55;;;23.55;;
22634;SDS011;11484;50.858;4.384;2022-11-20T00:55:59;42.25;;;23.55;;
22634;SDS011;11484;50.858;4.384;2022-11-20T00:58:30;41.15;;;22.58;;
22634;SDS011;11484;50.858;4.384;2022-11-20T01:01:01;45.80;;;24.08;;
22634;SDS011;11484;50.858;4.384;2022-11-20T01:03:37;41.65;;;23.55;;
22634;SDS011;11484;50.858;4.384;2022-11-20T01:06:06;46.50;;;25.15;;
22634;SDS011;11484;50.858;4.384;2022-11-20T01:08:35;47.72;;;24.35;;
22634;SDS011;11484;50.858;4.384;2022-11-20T01:11:22;38.78;;;22.42;;
22634;SDS011;11484;50.858;4.384;2022-11-20T01:13:52;41.42;;;23.67;;
22634;SDS011;11484;50.858;4.384;2022-11-20T01:16:19;40.17;;;23.67;;
22634;SDS011;11484;50.858;4.384;2022-11-20T01:18:50;44.67;;;23.40;;
22634;SDS011;11484;50.858;4.384;2022-11-20T01:23:45;40.33;;;23.02;;
22634;SDS011;11484;50.858;4.384;2022-11-20T01:26:13;43.25;;;24.75;;
22634;SDS011;11484;50.858;4.384;2022-11-20T01:28:41;44.25;;;22.98;;
22634;SDS011;11484;50.858;4.384;2022-11-20T01:31:15;42.97;;;24.13;;
22634;SDS011;11484;50.858;4.384;2022-11-20T01:33:43;43.10;;;23.63;;
22634;SDS011;11484;50.858;4.384;2022-11-20T01:36:10;43.05;;;22.55;;
22634;SDS011;11484;50.858;4.384;2022-11-20T01:38:37;41.80;;;23.73;;
22634;SDS011;11484;50.858;4.384;2022-11-20T01:41:03;43.95;;;24.20;;
22634;SDS011;11484;50.858;4.384;2022-11-20T01:43:29;40.03;;;23.58;;
22634;SDS011;11484;50.858;4.384;2022-11-20T01:45:56;44.53;;;25.38;;
22634;SDS011;11484;50.858;4.384;2022-11-20T01:49:15;42.92;;;23.83;;
22634;SDS011;11484;50.858;4.384;2022-11-20T01:51:25;45.80;;;25.30;;
22634;SDS011;11484;50.858;4.384;2022-11-20T01:53:59;43.95;;;25.38;;
22634;SDS011;11484;50.858;4.384;2022-11-20T01:56:28;45.22;;;24.65;;
22634;SDS011;11484;50.858;4.384;2022-11-20T01:58:59;48.83;;;26.52;;
22634;SDS011;11484;50.858;4.384;2022-11-20T02:01:34;48.90;;;26.15;;
22634;SDS011;11484;50.858;4.384;2022-11-20T02:03:59;50.70;;;25.50;;
22634;SDS011;11484;50.858;4.384;2022-11-20T02:06:27;43.53;;;25.20;;
22634;SDS011;11484;50.858;4.384;2022-11-20T02:08:57;47.47;;;25.55;;
22634;SDS011;11484;50.858;4.384;2022-11-20T02:11:23;49.83;;;26.95;;
22634;SDS011;11484;50.858;4.384;2022-11-20T02:13:49;50.22;;;26.52;;
22634;SDS011;11484;50.858;4.384;2022-11-20T02:18:42;52.35;;;28.58;;
22634;SDS011;11484;50.858;4.384;2022-11-20T02:21:12;45.75;;;25.75;;
22634;SDS011;11484;50.858;4.384;2022-11-20T02:26:32;47.15;;;26.85;;
22634;SDS011;11484;50.858;4.384;2022-11-20T02:29:07;53.08;;;28.40;;
22634;SDS011;11484;50.858;4.384;2022-11-20T02:31:37;54.15;;;27.50;;
22634;SDS011;11484;50.858;4.384;2022-11-20T02:34:06;56.92;;;28.88;;
22634;SDS011;11484;50.858;4.384;2022-11-20T02:36:32;54.50;;;26.85;;
22634;SDS011;11484;50.858;4.384;2022-11-20T02:39:00;53.38;;;27.30;;
22634;SDS011;11484;50.858;4.384;2022-11-20T02:41:30;49.78;;;24.75;;
22634;SDS011;11484;50.858;4.384;2022-11-20T02:46:22;47.30;;;23.38;;
22634;SDS011;11484;50.858;4.384;2022-11-20T02:48:48;44.53;;;23.65;;
22634;SDS011;11484;50.858;4.384;2022-11-20T02:51:14;43.80;;;22.02;;
22634;SDS011;11484;50.858;4.384;2022-11-20T02:53:39;42.65;;;22.67;;
22634;SDS011;11484;50.858;4.384;2022-11-20T02:56:05;41.85;;;22.50;;
22634;SDS011;11484;50.858;4.384;2022-11-20T02:58:31;44.55;;;21.90;;
22634;SDS011;11484;50.858;4.384;2022-11-20T03:00:57;44.97;;;27.52;;
22634;SDS011;11484;50.858;4.384;2022-11-20T03:03:23;43.28;;;21.65;;
22634;SDS011;11484;50.858;4.384;2022-11-20T03:05:48;44.08;;;22.30;;
22634;SDS011;11484;50.858;4.384;2022-11-20T03:08:14;38.60;;;20.50;;
22634;SDS011;11484;50.858;4.384;2022-11-20T03:10:40;42.28;;;20.80;;
22634;SDS011;11484;50.858;4.384;2022-11-20T03:13:06;45.92;;;22.00;;
22634;SDS011;11484;50.858;4.384;2022-11-20T03:15:32;41.38;;;21.77;;
22634;SDS011;11484;50.858;4.384;2022-11-20T03:17:57;39.25;;;21.02;;
22634;SDS011;11484;50.858;4.384;2022-11-20T03:20:23;40.35;;;20.65;;
22634;SDS011;11484;50.858;4.384;2022-11-20T03:22:49;40.10;;;20.77;;
22634;SDS011;11484;50.858;4.384;2022-11-20T03:25:15;36.28;;;18.27;;
22634;SDS011;11484;50.858;4.384;2022-11-20T03:27:41;34.75;;;17.10;;
22634;SDS011;11484;50.858;4.384;2022-11-20T03:30:06;33.05;;;17.70;;
22634;SDS011;11484;50.858;4.384;2022-11-20T03:32:33;32.45;;;16.58;;
22634;SDS011;11484;50.858;4.384;2022-11-20T03:34:58;37.67;;;18.40;;
22634;SDS011;11484;50.858;4.384;2022-11-20T03:37:24;40.33;;;19.17;;
22634;SDS011;11484;50.858;4.384;2022-11-20T03:39:49;37.60;;;19.00;;
22634;SDS011;11484;50.858;4.384;2022-11-20T03:42:15;37.50;;;18.38;;
22634;SDS011;11484;50.858;4.384;2022-11-20T03:44:59;40.22;;;19.48;;
22634;SDS011;11484;50.858;4.384;2022-11-20T03:47:25;38.30;;;19.15;;
22634;SDS011;11484;50.858;4.384;2022-11-20T03:49:51;38.40;;;19.60;;
22634;SDS011;11484;50.858;4.384;2022-11-20T03:52:17;39.88;;;19.75;;
22634;SDS011;11484;50.858;4.384;2022-11-20T03:54:43;39.47;;;19.20;;
22634;SDS011;11484;50.858;4.384;2022-11-20T03:57:09;36.53;;;19.35;;
22634;SDS011;11484;50.858;4.384;2022-11-20T03:59:35;37.65;;;19.48;;
22634;SDS011;11484;50.858;4.384;2022-11-20T04:02:00;42.70;;;21.15;;
22634;SDS011;11484;50.858;4.384;2022-11-20T04:04:26;39.70;;;19.77;;
22634;SDS011;11484;50.858;4.384;2022-11-20T04:06:54;41.97;;;20.30;;
22634;SDS011;11484;50.858;4.384;2022-11-20T04:09:20;42.22;;;19.48;;
22634;SDS011;11484;50.858;4.384;2022-11-20T04:11:46;41.83;;;19.73;;
22634;SDS011;11484;50.858;4.384;2022-11-20T04:14:12;43.50;;;19.15;;
22634;SDS011;11484;50.858;4.384;2022-11-20T04:16:40;43.78;;;20.48;;
22634;SDS011;11484;50.858;4.384;2022-11-20T04:19:08;39.45;;;20.45;;
22634;SDS011;11484;50.858;4.384;2022-11-20T04:21:35;43.63;;;20.20;;
22634;SDS011;11484;50.858;4.384;2022-11-20T04:24:01;42.42;;;21.10;;
22634;SDS011;11484;50.858;4.384;2022-11-20T04:26:28;46.35;;;20.90;;
22634;SDS011;11484;50.858;4.384;2022-11-20T04:28:54;43.47;;;20.85;;
22634;SDS011;11484;50.858;4.384;2022-11-20T04:31:23;45.25;;;22.08;;
22634;SDS011;11484;50.858;4.384;2022-11-20T04:33:51;46.70;;;22.55;;
22634;SDS011;11484;50.858;4.384;2022-11-20T04:36:22;47.65;;;22.17;;
22634;SDS011;11484;50.858;4.384;2022-11-20T04:38:53;47.38;;;21.92;;
22634;SDS011;11484;50.858;4.384;2022-11-20T04:41:21;54.53;;;23.15;;
22634;SDS011;11484;50.858;4.384;2022-11-20T04:43:51;47.58;;;22.27;;
22634;SDS011;11484;50.858;4.384;2022-11-20T04:46:19;57.00;;;24.23;;
22634;SDS011;11484;50.858;4.384;2022-11-20T04:48:46;48.88;;;23.42;;
22634;SDS011;11484;50.858;4.384;2022-11-20T04:51:12;47.70;;;22.17;;
22634;SDS011;11484;50.858;4.384;2022-11-20T04:53:38;50.70;;;23.02;;
22634;SDS011;11484;50.858;4.384;2022-11-20T04:56:05;55.45;;;23.80;;
22634;SDS011;11484;50.858;4.384;2022-11-20T04:58:34;51.75;;;23.00;;
22634;SDS011;11484;50.858;4.384;2022-11-20T05:01:01;51.55;;;22.85;;
22634;SDS011;11484;50.858;4.384;2022-11-20T05:05:56;49.75;;;21.92;;
22634;SDS011;11484;50.858;4.384;2022-11-20T05:08:24;51.28;;;22.95;;
22634;SDS011;11484;50.858;4.384;2022-11-20T05:10:50;49.95;;;23.55;;
22634;SDS011;11484;50.858;4.384;2022-11-20T05:13:16;52.83;;;22.83;;
22634;SDS011;11484;50.858;4.384;2022-11-20T05:15:42;52.42;;;22.20;;
22634;SDS011;11484;50.858;4.384;2022-11-20T05:18:07;53.92;;;22.42;;
22634;SDS011;11484;50.858;4.384;2022-11-20T05:20:33;55.78;;;22.90;;
22634;SDS011;11484;50.858;4.384;2022-11-20T05:23:02;52.90;;;23.00;;
22634;SDS011;11484;50.858;4.384;2022-11-20T05:25:27;51.30;;;23.20;;
22634;SDS011;11484;50.858;4.384;2022-11-20T05:27:54;54.05;;;24.10;;
22634;SDS011;11484;50.858;4.384;2022-11-20T05:30:20;52.95;;;23.25;;
22634;SDS011;11484;50.858;4.384;2022-11-20T05:32:47;48.15;;;21.55;;
22634;SDS011;11484;50.858;4.384;2022-11-20T05:35:19;52.03;;;22.27;;
22634;SDS011;11484;50.858;4.384;2022-11-20T05:37:45;54.00;;;22.83;;
22634;SDS011;11484;50.858;4.384;2022-11-20T05:40:11;50.08;;;22.33;;
22634;SDS011;11484;50.858;4.384;2022-11-20T05:42:37;50.60;;;22.88;;
22634;SDS011;11484;50.858;4.384;2022-11-20T05:45:04;50.00;;;22.77;;
22634;SDS011;11484;50.858;4.384;2022-11-20T05:47:31;54.10;;;23.63;;
22634;SDS011;11484;50.858;4.384;2022-11-20T05:50:00;49.70;;;22.73;;
22634;SDS011;11484;50.858;4.384;2022-11-20T05:52:33;51.40;;;23.08;;
22634;SDS011;11484;50.858;4.384;2022-11-20T05:55:00;47.55;;;22.30;;
22634;SDS011;11484;50.858;4.384;2022-11-20T05:57:26;49.50;;;23.15;;
22634;SDS011;11484;50.858;4.384;2022-11-20T05:59:52;48.75;;;22.52;;
22634;SDS011;11484;50.858;4.384;2022-11-20T06:02:17;48.15;;;22.70;;
22634;SDS011;11484;50.858;4.384;2022-11-20T06:04:44;49.28;;;21.88;;
22634;SDS011;11484;50.858;4.384;2022-11-20T06:07:11;49.33;;;22.63;;
22634;SDS011;11484;50.858;4.384;2022-11-20T06:09:39;51.83;;;23.00;;
22634;SDS011;11484;50.858;4.384;2022-11-20T06:12:04;51.72;;;22.95;;
22634;SDS011;11484;50.858;4.384;2022-11-20T06:14:31;52.85;;;22.42;;
22634;SDS011;11484;50.858;4.384;2022-11-20T06:16:58;51.10;;;22.42;;
22634;SDS011;11484;50.858;4.384;2022-11-20T06:19:25;50.20;;;22.90;;
22634;SDS011;11484;50.858;4.384;2022-11-20T06:21:51;48.97;;;22.63;;
22634;SDS011;11484;50.858;4.384;2022-11-20T06:24:17;53.83;;;23.23;;
22634;SDS011;11484;50.858;4.384;2022-11-20T06:26:43;52.75;;;23.25;;
22634;SDS011;11484;50.858;4.384;2022-11-20T06:29:09;59.10;;;22.83;;
22634;SDS011;11484;50.858;4.384;2022-11-20T06:31:35;46.53;;;22.65;;
22634;SDS011;11484;50.858;4.384;2022-11-20T06:34:03;53.90;;;23.55;;
22634;SDS011;11484;50.858;4.384;2022-11-20T06:36:31;54.75;;;21.60;;
22634;SDS011;11484;50.858;4.384;2022-11-20T06:38:57;56.20;;;23.27;;
22634;SDS011;11484;50.858;4.384;2022-11-20T06:41:25;53.97;;;22.58;;
22634;SDS011;11484;50.858;4.384;2022-11-20T06:43:51;52.30;;;22.67;;
22634;SDS011;11484;50.858;4.384;2022-11-20T06:46:18;56.35;;;22.33;;
22634;SDS011;11484;50.858;4.384;2022-11-20T06:48:45;50.28;;;23.30;;
22634;SDS011;11484;50.858;4.384;2022-11-20T06:51:13;53.60;;;23.83;;
22634;SDS011;11484;50.858;4.384;2022-11-20T06:53:39;49.50;;;22.42;;
22634;SDS011;11484;50.858;4.384;2022-11-20T06:56:05;50.70;;;21.83;;
22634;SDS011;11484;50.858;4.384;2022-11-20T06:58:33;48.45;;;21.98;;
22634;SDS011;11484;50.858;4.384;2022-11-20T07:01:00;50.08;;;21.13;;
22634;SDS011;11484;50.858;4.384;2022-11-20T07:03:30;52.45;;;22.42;;
22634;SDS011;11484;50.858;4.384;2022-11-20T07:05:57;53.50;;;22.25;;
22634;SDS011;11484;50.858;4.384;2022-11-20T07:08:25;55.30;;;22.60;;
22634;SDS011;11484;50.858;4.384;2022-11-20T07:10:56;52.28;;;22.73;;
22634;SDS011;11484;50.858;4.384;2022-11-20T07:13:27;50.85;;;22.13;;
22634;SDS011;11484;50.858;4.384;2022-11-20T07:15:53;51.95;;;22.42;;
22634;SDS011;11484;50.858;4.384;2022-11-20T07:18:19;50.47;;;22.02;;
22634;SDS011;11484;50.858;4.384;2022-11-20T07:20:46;49.03;;;21.63;;
22634;SDS011;11484;50.858;4.384;2022-11-20T07:23:13;51.08;;;22.40;;
22634;SDS011;11484;50.858;4.384;2022-11-20T07:25:39;48.78;;;22.45;;
22634;SDS011;11484;50.858;4.384;2022-11-20T07:28:08;52.45;;;22.42;;
22634;SDS011;11484;50.858;4.384;2022-11-20T07:30:35;51.95;;;22.48;;
22634;SDS011;11484;50.858;4.384;2022-11-20T07:33:03;46.83;;;20.55;;
22634;SDS011;11484;50.858;4.384;2022-11-20T07:35:35;50.58;;;21.67;;
22634;SDS011;11484;50.858;4.384;2022-11-20T07:38:01;46.80;;;20.95;;
22634;SDS011;11484;50.858;4.384;2022-11-20T07:40:27;45.72;;;21.80;;
22634;SDS011;11484;50.858;4.384;2022-11-20T07:42:53;51.63;;;21.70;;
22634;SDS011;11484;50.858;4.384;2022-11-20T07:45:21;48.78;;;21.33;;
22634;SDS011;11484;50.858;4.384;2022-11-20T07:47:48;51.72;;;21.33;;
22634;SDS011;11484;50.858;4.384;2022-11-20T07:50:14;47.63;;;20.27;;
22634;SDS011;11484;50.858;4.384;2022-11-20T07:52:40;44.13;;;20.55;;
22634;SDS011;11484;50.858;4.384;2022-11-20T07:55:08;48.67;;;20.02;;
22634;SDS011;11484;50.858;4.384;2022-11-20T07:57:34;54.20;;;23.92;;
22634;SDS011;11484;50.858;4.384;2022-11-20T08:00:00;51.80;;;22.58;;
22634;SDS011;11484;50.858;4.384;2022-11-20T08:02:27;55.10;;;22.98;;
22634;SDS011;11484;50.858;4.384;2022-11-20T08:04:55;60.47;;;27.88;;
22634;SDS011;11484;50.858;4.384;2022-11-20T08:07:21;57.63;;;24.35;;
22634;SDS011;11484;50.858;4.384;2022-11-20T08:09:47;52.03;;;22.55;;
22634;SDS011;11484;50.858;4.384;2022-11-20T08:12:19;55.88;;;23.42;;
22634;SDS011;11484;50.858;4.384;2022-11-20T08:15:04;47.28;;;22.02;;
22634;SDS011;11484;50.858;4.384;2022-11-20T08:17:31;52.60;;;21.75;;
22634;SDS011;11484;50.858;4.384;2022-11-20T08:19:58;53.08;;;21.08;;
22634;SDS011;11484;50.858;4.384;2022-11-20T08:22:24;51.35;;;23.23;;
22634;SDS011;11484;50.858;4.384;2022-11-20T08:24:50;60.10;;;22.08;;
22634;SDS011;11484;50.858;4.384;2022-11-20T08:27:16;51.05;;;21.23;;
22634;SDS011;11484;50.858;4.384;2022-11-20T08:29:41;49.28;;;20.85;;
22634;SDS011;11484;50.858;4.384;2022-11-20T08:32:07;56.40;;;22.33;;
22634;SDS011;11484;50.858;4.384;2022-11-20T08:34:33;45.00;;;20.30;;
22634;SDS011;11484;50.858;4.384;2022-11-20T08:37:01;49.80;;;21.35;;
22634;SDS011;11484;50.858;4.384;2022-11-20T08:39:27;54.67;;;22.33;;
22634;SDS011;11484;50.858;4.384;2022-11-20T08:41:53;47.38;;;20.95;;
22634;SDS011;11484;50.858;4.384;2022-11-20T08:44:19;54.00;;;21.33;;
22634;SDS011;11484;50.858;4.384;2022-11-20T08:46:44;52.70;;;21.15;;
22634;SDS011;11484;50.858;4.384;2022-11-20T08:49:12;48.50;;;21.67;;
22634;SDS011;11484;50.858;4.384;2022-11-20T08:51:39;51.45;;;21.52;;
22634;SDS011;11484;50.858;4.384;2022-11-20T08:54:05;49.78;;;21.42;;
22634;SDS011;11484;50.858;4.384;2022-11-20T08:56:33;46.45;;;19.95;;
22634;SDS011;11484;50.858;4.384;2022-11-20T08:59:00;48.70;;;21.67;;
22634;SDS011;11484;50.858;4.384;2022-11-20T09:01:28;50.13;;;21.13;;
22634;SDS011;11484;50.858;4.384;2022-11-20T09:03:55;47.42;;;19.95;;
22634;SDS011;11484;50.858;4.384;2022-11-20T09:06:26;48.80;;;20.33;;
22634;SDS011;11484;50.858;4.384;2022-11-20T09:08:53;51.90;;;22.88;;
22634;SDS011;11484;50.858;4.384;2022-11-20T09:11:21;49.85;;;21.88;;
22634;SDS011;11484;50.858;4.384;2022-11-20T09:13:49;44.65;;;21.25;;
22634;SDS011;11484;50.858;4.384;2022-11-20T09:16:15;45.03;;;20.75;;
22634;SDS011;11484;50.858;4.384;2022-11-20T09:18:41;43.42;;;18.85;;
22634;SDS011;11484;50.858;4.384;2022-11-20T09:21:11;39.35;;;19.88;;
22634;SDS011;11484;50.858;4.384;2022-11-20T09:23:38;41.65;;;18.55;;
22634;SDS011;11484;50.858;4.384;2022-11-20T09:28:30;39.92;;;17.88;;
22634;SDS011;11484;50.858;4.384;2022-11-20T09:30:58;35.90;;;17.58;;
22634;SDS011;11484;50.858;4.384;2022-11-20T09:33:24;39.03;;;18.25;;
22634;SDS011;11484;50.858;4.384;2022-11-20T09:35:50;35.25;;;16.13;;
22634;SDS011;11484;50.858;4.384;2022-11-20T09:38:15;35.17;;;18.73;;
22634;SDS011;11484;50.858;4.384;2022-11-20T09:40:51;37.60;;;17.90;;
22634;SDS011;11484;50.858;4.384;2022-11-20T09:53:32;37.03;;;17.55;;
22634;SDS011;11484;50.858;4.384;2022-11-20T09:56:00;32.08;;;16.67;;
22634;SDS011;11484;50.858;4.384;2022-11-20T10:01:21;28.50;;;14.32;;
22634;SDS011;11484;50.858;4.384;2022-11-20T10:06:17;31.05;;;14.65;;
22634;SDS011;11484;50.858;4.384;2022-11-20T10:08:51;23.80;;;12.15;;
22634;SDS011;11484;50.858;4.384;2022-11-20T10:14:03;24.20;;;11.90;;
22634;SDS011;11484;50.858;4.384;2022-11-20T10:19:43;22.85;;;12.02;;
22634;SDS011;11484;50.858;4.384;2022-11-20T10:31:14;18.98;;;9.48;;
22634;SDS011;11484;50.858;4.384;2022-11-20T10:33:50;15.18;;;8.10;;
22634;SDS011;11484;50.858;4.384;2022-11-20T10:36:19;15.68;;;8.20;;
22634;SDS011;11484;50.858;4.384;2022-11-20T10:38:51;13.35;;;7.18;;
22634;SDS011;11484;50.858;4.384;2022-11-20T10:41:32;15.02;;;7.60;;
22634;SDS011;11484;50.858;4.384;2022-11-20T10:44:26;15.68;;;7.03;;
22634;SDS011;11484;50.858;4.384;2022-11-20T10:47:15;15.50;;;6.50;;
22634;SDS011;11484;50.858;4.384;2022-11-20T10:49:43;11.95;;;6.68;;
22634;SDS011;11484;50.858;4.384;2022-11-20T10:57:55;11.82;;;6.05;;
22634;SDS011;11484;50.858;4.384;2022-11-20T11:00:45;9.52;;;5.38;;
22634;SDS011;11484;50.858;4.384;2022-11-20T11:03:20;10.68;;;5.50;;
22634;SDS011;11484;50.858;4.384;2022-11-20T11:05:53;10.07;;;5.03;;
22634;SDS011;11484;50.858;4.384;2022-11-20T11:08:23;11.20;;;5.38;;
22634;SDS011;11484;50.858;4.384;2022-11-20T11:10:57;12.52;;;5.13;;
22634;SDS011;11484;50.858;4.384;2022-11-20T11:13:29;12.40;;;5.40;;
22634;SDS011;11484;50.858;4.384;2022-11-20T11:15:55;8.52;;;4.18;;
22634;SDS011;11484;50.858;4.384;2022-11-20T11:18:26;11.10;;;5.47;;
22634;SDS011;11484;50.858;4.384;2022-11-20T11:20:53;9.07;;;5.13;;
22634;SDS011;11484;50.858;4.384;2022-11-20T11:23:37;9.00;;;4.40;;
22634;SDS011;11484;50.858;4.384;2022-11-20T11:26:06;7.38;;;4.28;;
22634;SDS011;11484;50.858;4.384;2022-11-20T11:28:52;11.27;;;4.32;;
22634;SDS011;11484;50.858;4.384;2022-11-20T11:31:32;9.13;;;4.10;;
22634;SDS011;11484;50.858;4.384;2022-11-20T11:34:06;7.45;;;4.13;;
22634;SDS011;11484;50.858;4.384;2022-11-20T11:36:37;8.40;;;3.90;;
22634;SDS011;11484;50.858;4.384;2022-11-20T11:39:03;9.57;;;5.35;;
22634;SDS011;11484;50.858;4.384;2022-11-20T11:41:32;8.77;;;4.22;;
22634;SDS011;11484;50.858;4.384;2022-11-20T11:44:44;8.65;;;3.80;;
22634;SDS011;11484;50.858;4.384;2022-11-20T11:47:21;9.32;;;4.28;;
22634;SDS011;11484;50.858;4.384;2022-11-20T11:52:41;8.35;;;4.60;;
22634;SDS011;11484;50.858;4.384;2022-11-20T11:55:14;9.95;;;4.88;;
22634;SDS011;11484;50.858;4.384;2022-11-20T12:00:41;11.50;;;7.22;;
22634;SDS011;11484;50.858;4.384;2022-11-20T12:03:19;6.07;;;3.63;;
22634;SDS011;11484;50.858;4.384;2022-11-20T12:05:50;5.43;;;3.35;;
22634;SDS011;11484;50.858;4.384;2022-11-20T12:13:47;12.07;;;5.50;;
22634;SDS011;11484;50.858;4.384;2022-11-20T12:16:28;9.77;;;4.75;;
22634;SDS011;11484;50.858;4.384;2022-11-20T12:18:59;7.28;;;3.95;;
22634;SDS011;11484;50.858;4.384;2022-11-20T12:21:31;7.72;;;3.53;;
22634;SDS011;11484;50.858;4.384;2022-11-20T12:44:25;8.38;;;4.20;;
22634;SDS011;11484;50.858;4.384;2022-11-20T12:58:45;8.95;;;4.10;;
22634;SDS011;11484;50.858;4.384;2022-11-20T13:01:24;9.65;;;4.38;;
22634;SDS011;11484;50.858;4.384;2022-11-20T13:04:13;7.97;;;3.55;;
22634;SDS011;11484;50.858;4.384;2022-11-20T13:06:43;9.35;;;3.78;;
22634;SDS011;11484;50.858;4.384;2022-11-20T13:09:11;6.65;;;3.60;;
22634;SDS011;11484;50.858;4.384;2022-11-20T13:11:44;5.95;;;3.58;;
22634;SDS011;11484;50.858;4.384;2022-11-20T13:17:43;6.82;;;3.72;;
22634;SDS011;11484;50.858;4.384;2022-11-20T13:20:20;7.82;;;3.90;;
22634;SDS011;11484;50.858;4.384;2022-11-20T13:22:47;8.48;;;3.97;;
22634;SDS011;11484;50.858;4.384;2022-11-20T13:27:49;7.97;;;3.25;;
22634;SDS011;11484;50.858;4.384;2022-11-20T13:30:16;7.68;;;3.70;;
22634;SDS011;11484;50.858;4.384;2022-11-20T13:32:54;5.75;;;3.20;;
22634;SDS011;11484;50.858;4.384;2022-11-20T13:35:32;5.68;;;3.75;;
22634;SDS011;11484;50.858;4.384;2022-11-20T13:38:09;7.97;;;4.18;;
22634;SDS011;11484;50.858;4.384;2022-11-20T13:40:38;7.25;;;4.07;;
22634;SDS011;11484;50.858;4.384;2022-11-20T13:43:23;5.93;;;3.50;;
22634;SDS011;11484;50.858;4.384;2022-11-20T13:46:04;7.75;;;4.45;;
22634;SDS011;11484;50.858;4.384;2022-11-20T13:54:19;6.82;;;4.07;;
22634;SDS011;11484;50.858;4.384;2022-11-20T13:57:21;7.22;;;4.50;;
22634;SDS011;11484;50.858;4.384;2022-11-20T14:03:06;6.30;;;3.90;;
22634;SDS011;11484;50.858;4.384;2022-11-20T14:05:45;6.43;;;4.03;;
22634;SDS011;11484;50.858;4.384;2022-11-20T14:08:25;4.93;;;3.08;;
22634;SDS011;11484;50.858;4.384;2022-11-20T14:11:04;5.40;;;3.15;;
22634;SDS011;11484;50.858;4.384;2022-11-20T14:16:22;21.58;;;9.18;;
22634;SDS011;11484;50.858;4.384;2022-11-20T14:18:52;7.20;;;5.28;;
22634;SDS011;11484;50.858;4.384;2022-11-20T14:21:22;7.75;;;4.80;;
22634;SDS011;11484;50.858;4.384;2022-11-20T14:23:51;7.93;;;3.78;;
22634;SDS011;11484;50.858;4.384;2022-11-20T14:26:18;5.30;;;3.25;;
22634;SDS011;11484;50.858;4.384;2022-11-20T14:28:49;4.50;;;3.38;;
22634;SDS011;11484;50.858;4.384;2022-11-20T14:31:25;6.47;;;3.67;;
22634;SDS011;11484;50.858;4.384;2022-11-20T14:33:52;7.18;;;4.32;;
22634;SDS011;11484;50.858;4.384;2022-11-20T14:36:21;4.45;;;3.10;;
22634;SDS011;11484;50.858;4.384;2022-11-20T14:38:48;3.90;;;2.80;;
22634;SDS011;11484;50.858;4.384;2022-11-20T14:41:21;5.93;;;3.83;;
22634;SDS011;11484;50.858;4.384;2022-11-20T14:43:58;4.43;;;3.30;;
22634;SDS011;11484;50.858;4.384;2022-11-20T14:46:25;6.50;;;3.83;;
22634;SDS011;11484;50.858;4.384;2022-11-20T14:48:56;4.95;;;3.90;;
22634;SDS011;11484;50.858;4.384;2022-11-20T14:51:35;6.75;;;3.55;;
22634;SDS011;11484;50.858;4.384;2022-11-20T14:54:17;4.38;;;2.90;;
22634;SDS011;11484;50.858;4.384;2022-11-20T14:56:59;5.43;;;3.50;;
22634;SDS011;11484;50.858;4.384;2022-11-20T14:59:31;6.72;;;3.97;;
22634;SDS011;11484;50.858;4.384;2022-11-20T15:02:00;9.05;;;5.28;;
22634;SDS011;11484;50.858;4.384;2022-11-20T15:04:34;5.07;;;2.97;;
22634;SDS011;11484;50.858;4.384;2022-11-20T15:10:01;7.32;;;3.70;;
22634;SDS011;11484;50.858;4.384;2022-11-20T15:12:33;6.13;;;3.22;;
22634;SDS011;11484;50.858;4.384;2022-11-20T15:15:01;7.40;;;6.25;;
22634;SDS011;11484;50.858;4.384;2022-11-20T15:17:31;4.90;;;3.40;;
22634;SDS011;11484;50.858;4.384;2022-11-20T15:19:59;9.00;;;4.50;;
22634;SDS011;11484;50.858;4.384;2022-11-20T15:22:27;6.93;;;5.00;;
22634;SDS011;11484;50.858;4.384;2022-11-20T15:24:53;7.95;;;5.63;;
22634;SDS011;11484;50.858;4.384;2022-11-20T15:27:18;9.25;;;5.10;;
22634;SDS011;11484;50.858;4.384;2022-11-20T15:29:44;7.70;;;4.43;;
22634;SDS011;11484;50.858;4.384;2022-11-20T15:32:10;8.05;;;4.32;;
22634;SDS011;11484;50.858;4.384;2022-11-20T15:34:36;6.50;;;4.30;;
22634;SDS011;11484;50.858;4.384;2022-11-20T15:37:02;8.05;;;4.60;;
22634;SDS011;11484;50.858;4.384;2022-11-20T15:39:28;6.70;;;4.63;;
22634;SDS011;11484;50.858;4.384;2022-11-20T15:41:53;11.05;;;3.83;;
22634;SDS011;11484;50.858;4.384;2022-11-20T15:44:19;6.53;;;4.30;;
22634;SDS011;11484;50.858;4.384;2022-11-20T15:46:46;10.05;;;5.68;;
22634;SDS011;11484;50.858;4.384;2022-11-20T15:49:13;8.07;;;5.00;;
22634;SDS011;11484;50.858;4.384;2022-11-20T15:51:44;8.18;;;4.40;;
22634;SDS011;11484;50.858;4.384;2022-11-20T15:54:13;7.05;;;5.05;;
22634;SDS011;11484;50.858;4.384;2022-11-20T15:56:42;6.68;;;4.13;;
22634;SDS011;11484;50.858;4.384;2022-11-20T15:59:08;8.50;;;4.45;;
22634;SDS011;11484;50.858;4.384;2022-11-20T16:01:34;9.38;;;4.72;;
22634;SDS011;11484;50.858;4.384;2022-11-20T16:04:00;10.35;;;4.80;;
22634;SDS011;11484;50.858;4.384;2022-11-20T16:06:26;12.98;;;7.55;;
22634;SDS011;11484;50.858;4.384;2022-11-20T16:08:51;14.38;;;7.13;;
22634;SDS011;11484;50.858;4.384;2022-11-20T16:11:20;11.43;;;4.80;;
22634;SDS011;11484;50.858;4.384;2022-11-20T16:13:46;9.60;;;4.20;;
22634;SDS011;11484;50.858;4.384;2022-11-20T16:16:38;12.55;;;4.60;;
22634;SDS011;11484;50.858;4.384;2022-11-20T16:19:05;12.00;;;4.85;;
22634;SDS011;11484;50.858;4.384;2022-11-20T16:21:31;12.25;;;4.82;;
22634;SDS011;11484;50.858;4.384;2022-11-20T16:24:04;13.45;;;5.55;;
22634;SDS011;11484;50.858;4.384;2022-11-20T16:26:31;13.00;;;4.80;;
22634;SDS011;11484;50.858;4.384;2022-11-20T16:29:01;17.33;;;5.50;;
22634;SDS011;11484;50.858;4.384;2022-11-20T16:31:30;13.18;;;4.47;;
22634;SDS011;11484;50.858;4.384;2022-11-20T16:33:58;13.65;;;4.10;;
22634;SDS011;11484;50.858;4.384;2022-11-20T16:36:26;10.40;;;4.07;;
22634;SDS011;11484;50.858;4.384;2022-11-20T16:38:54;12.30;;;4.43;;
22634;SDS011;11484;50.858;4.384;2022-11-20T16:41:21;12.27;;;3.90;;